sensor_id;sensor_type;location;lat;lon;timestamp;pressure;altitude;pressure_sealevel;temperature;humidity
10518;BME280;5307;42.548;22.968;2023-03-31T00:01:26;93862.47;;;7.89;73.98
10518;BME280;5307;42.548;22.968;2023-03-31T00:03:53;93862.69;;;7.95;74.08
10518;BME280;5307;42.548;22.968;2023-03-31T00:06:28;93858.19;;;8.04;74.49
10518;BME280;5307;42.548;22.968;2023-03-31T00:08:56;93856.09;;;8.38;66.94
10518;BME280;5307;42.548;22.968;2023-03-31T00:11:27;93857.53;;;8.55;64.21
10518;BME280;5307;42.548;22.968;2023-03-31T00:13:56;93859.75;;;8.60;63.93
10518;BME280;5307;42.548;22.968;2023-03-31T00:16:22;93852.44;;;8.82;60.11
10518;BME280;5307;42.548;22.968;2023-03-31T00:18:50;93848.75;;;8.76;60.11
10518;BME280;5307;42.548;22.968;2023-03-31T00:21:18;93846.78;;;8.89;58.79
10518;BME280;5307;42.548;22.968;2023-03-31T00:23:55;93843.50;;;8.95;59.04
10518;BME280;5307;42.548;22.968;2023-03-31T00:26:22;93839.59;;;8.96;58.73
10518;BME280;5307;42.548;22.968;2023-03-31T00:28:51;93831.97;;;8.90;57.94
10518;BME280;5307;42.548;22.968;2023-03-31T00:31:19;93840.78;;;9.07;57.90
10518;BME280;5307;42.548;22.968;2023-03-31T00:33:47;93832.59;;;9.07;57.06
10518;BME280;5307;42.548;22.968;2023-03-31T00:36:14;93834.00;;;9.12;56.84
10518;BME280;5307;42.548;22.968;2023-03-31T00:38:45;93828.88;;;9.14;57.12
10518;BME280;5307;42.548;22.968;2023-03-31T00:41:12;93810.69;;;8.98;57.17
10518;BME280;5307;42.548;22.968;2023-03-31T00:43:40;93816.56;;;9.09;56.87
10518;BME280;5307;42.548;22.968;2023-03-31T00:46:13;93812.97;;;9.12;57.26
10518;BME280;5307;42.548;22.968;2023-03-31T00:48:47;93821.06;;;9.16;56.51
10518;BME280;5307;42.548;22.968;2023-03-31T00:51:17;93814.41;;;9.17;56.79
10518;BME280;5307;42.548;22.968;2023-03-31T00:53:48;93819.84;;;9.17;56.91
10518;BME280;5307;42.548;22.968;2023-03-31T00:56:20;93819.09;;;9.16;56.99
10518;BME280;5307;42.548;22.968;2023-03-31T00:58:47;93814.72;;;9.19;56.68
10518;BME280;5307;42.548;22.968;2023-03-31T01:01:18;93813.06;;;9.21;56.14
10518;BME280;5307;42.548;22.968;2023-03-31T01:03:47;93814.47;;;9.26;55.82
10518;BME280;5307;42.548;22.968;2023-03-31T01:06:15;93813.72;;;9.26;55.84
10518;BME280;5307;42.548;22.968;2023-03-31T01:08:44;93808.69;;;9.24;56.06
10518;BME280;5307;42.548;22.968;2023-03-31T01:11:13;93812.06;;;9.28;56.42
10518;BME280;5307;42.548;22.968;2023-03-31T01:13:42;93821.34;;;9.31;56.67
10518;BME280;5307;42.548;22.968;2023-03-31T01:16:10;93817.50;;;9.28;58.88
10518;BME280;5307;42.548;22.968;2023-03-31T01:18:37;93824.72;;;9.22;60.39
10518;BME280;5307;42.548;22.968;2023-03-31T01:24:52;93821.50;;;9.02;69.79
10518;BME280;5307;42.548;22.968;2023-03-31T01:27:38;93828.34;;;9.06;66.69
10518;BME280;5307;42.548;22.968;2023-03-31T01:33:36;93832.94;;;8.84;70.68
10518;BME280;5307;42.548;22.968;2023-03-31T01:36:32;93839.47;;;8.86;69.88
10518;BME280;5307;42.548;22.968;2023-03-31T01:39:49;93834.13;;;8.83;70.43
10518;BME280;5307;42.548;22.968;2023-03-31T01:42:31;93844.81;;;8.77;73.94
10518;BME280;5307;42.548;22.968;2023-03-31T01:45:09;93846.53;;;8.71;73.04
10518;BME280;5307;42.548;22.968;2023-03-31T01:47:43;93841.88;;;8.72;73.86
10518;BME280;5307;42.548;22.968;2023-03-31T01:50:18;93847.53;;;8.77;73.53
10518;BME280;5307;42.548;22.968;2023-03-31T01:52:53;93867.91;;;8.60;83.09
10518;BME280;5307;42.548;22.968;2023-03-31T01:55:26;93872.00;;;8.52;88.98
10518;BME280;5307;42.548;22.968;2023-03-31T01:57:59;93884.72;;;8.42;94.16
10518;BME280;5307;42.548;22.968;2023-03-31T02:00:30;93884.19;;;8.35;90.80
10518;BME280;5307;42.548;22.968;2023-03-31T02:03:03;93881.06;;;8.49;84.68
10518;BME280;5307;42.548;22.968;2023-03-31T02:05:34;93861.69;;;8.47;84.92
10518;BME280;5307;42.548;22.968;2023-03-31T02:08:05;93884.97;;;8.48;90.70
10518;BME280;5307;42.548;22.968;2023-03-31T02:10:35;93884.72;;;8.42;87.10
10518;BME280;5307;42.548;22.968;2023-03-31T02:13:05;93879.97;;;8.46;82.10
10518;BME280;5307;42.548;22.968;2023-03-31T02:15:35;93885.94;;;8.54;80.31
10518;BME280;5307;42.548;22.968;2023-03-31T02:18:05;93895.28;;;8.11;94.39
10518;BME280;5307;42.548;22.968;2023-03-31T02:20:37;93909.09;;;8.04;100.00
10518;BME280;5307;42.548;22.968;2023-03-31T02:23:07;93902.78;;;8.07;100.00
10518;BME280;5307;42.548;22.968;2023-03-31T02:25:41;93895.31;;;7.66;100.00
10518;BME280;5307;42.548;22.968;2023-03-31T02:28:15;93890.50;;;7.86;100.00
10518;BME280;5307;42.548;22.968;2023-03-31T02:30:49;93882.53;;;8.08;100.00
10518;BME280;5307;42.548;22.968;2023-03-31T02:33:18;93889.13;;;7.94;100.00
10518;BME280;5307;42.548;22.968;2023-03-31T02:35:45;93885.50;;;7.85;100.00
10518;BME280;5307;42.548;22.968;2023-03-31T02:38:12;93872.59;;;7.89;100.00
10518;BME280;5307;42.548;22.968;2023-03-31T02:40:41;93872.97;;;8.03;99.33
10518;BME280;5307;42.548;22.968;2023-03-31T02:43:08;93872.44;;;8.09;97.30
10518;BME280;5307;42.548;22.968;2023-03-31T02:45:41;93851.63;;;8.02;93.44
10518;BME280;5307;42.548;22.968;2023-03-31T02:48:12;93861.13;;;8.10;90.09
10518;BME280;5307;42.548;22.968;2023-03-31T02:50:55;93857.63;;;8.10;87.60
10518;BME280;5307;42.548;22.968;2023-03-31T02:53:38;93847.66;;;8.19;86.79
10518;BME280;5307;42.548;22.968;2023-03-31T02:56:27;93836.09;;;8.15;83.97
10518;BME280;5307;42.548;22.968;2023-03-31T02:59:30;93815.97;;;8.13;84.31
10518;BME280;5307;42.548;22.968;2023-03-31T03:02:08;93820.13;;;8.17;84.54
10518;BME280;5307;42.548;22.968;2023-03-31T03:04:57;93811.63;;;8.15;84.54
10518;BME280;5307;42.548;22.968;2023-03-31T03:07:33;93825.66;;;8.14;85.19
10518;BME280;5307;42.548;22.968;2023-03-31T03:10:07;93814.56;;;8.08;86.34
10518;BME280;5307;42.548;22.968;2023-03-31T03:12:42;93814.00;;;8.13;87.33
10518;BME280;5307;42.548;22.968;2023-03-31T03:15:17;93819.25;;;8.20;89.72
10518;BME280;5307;42.548;22.968;2023-03-31T03:17:47;93825.63;;;8.01;90.56
10518;BME280;5307;42.548;22.968;2023-03-31T03:20:18;93809.81;;;7.83;91.13
10518;BME280;5307;42.548;22.968;2023-03-31T03:22:45;93827.56;;;8.00;91.88
10518;BME280;5307;42.548;22.968;2023-03-31T03:25:14;93825.34;;;7.83;92.37
10518;BME280;5307;42.548;22.968;2023-03-31T03:27:43;93829.47;;;7.74;92.20
10518;BME280;5307;42.548;22.968;2023-03-31T03:30:11;93833.31;;;7.90;93.13
10518;BME280;5307;42.548;22.968;2023-03-31T03:32:38;93825.34;;;7.83;93.46
10518;BME280;5307;42.548;22.968;2023-03-31T03:35:06;93831.97;;;7.82;92.81
10518;BME280;5307;42.548;22.968;2023-03-31T03:37:33;93834.81;;;7.78;91.82
10518;BME280;5307;42.548;22.968;2023-03-31T03:40:00;93819.97;;;7.66;91.06
10518;BME280;5307;42.548;22.968;2023-03-31T03:42:26;93822.47;;;7.73;90.71
10518;BME280;5307;42.548;22.968;2023-03-31T03:44:55;93824.44;;;7.73;90.23
10518;BME280;5307;42.548;22.968;2023-03-31T03:47:21;93827.59;;;7.71;89.04
10518;BME280;5307;42.548;22.968;2023-03-31T03:49:48;93821.06;;;7.69;88.06
10518;BME280;5307;42.548;22.968;2023-03-31T03:52:16;93824.06;;;7.58;87.96
10518;BME280;5307;42.548;22.968;2023-03-31T03:54:42;93819.91;;;7.54;88.03
10518;BME280;5307;42.548;22.968;2023-03-31T03:57:09;93809.25;;;7.47;88.75
10518;BME280;5307;42.548;22.968;2023-03-31T03:59:37;93824.78;;;7.46;88.37
10518;BME280;5307;42.548;22.968;2023-03-31T04:02:05;93835.59;;;7.33;89.57
10518;BME280;5307;42.548;22.968;2023-03-31T04:04:32;93831.47;;;7.41;90.37
10518;BME280;5307;42.548;22.968;2023-03-31T04:07:01;93830.16;;;7.33;90.51
10518;BME280;5307;42.548;22.968;2023-03-31T04:09:27;93843.13;;;7.26;90.49
10518;BME280;5307;42.548;22.968;2023-03-31T04:14:50;93839.50;;;7.32;90.47
10518;BME280;5307;42.548;22.968;2023-03-31T04:24:18;93848.91;;;7.28;89.51
10518;BME280;5307;42.548;22.968;2023-03-31T04:26:46;93838.47;;;7.26;91.07
10518;BME280;5307;42.548;22.968;2023-03-31T04:29:15;93842.44;;;7.38;91.99
10518;BME280;5307;42.548;22.968;2023-03-31T04:31:44;93846.38;;;7.21;90.70
10518;BME280;5307;42.548;22.968;2023-03-31T04:34:12;93832.38;;;7.22;91.22
10518;BME280;5307;42.548;22.968;2023-03-31T04:36:40;93833.81;;;7.10;91.72
10518;BME280;5307;42.548;22.968;2023-03-31T04:39:11;93832.28;;;7.26;90.27
10518;BME280;5307;42.548;22.968;2023-03-31T04:41:40;93830.72;;;7.41;89.83
10518;BME280;5307;42.548;22.968;2023-03-31T04:44:07;93832.34;;;7.38;91.60
10518;BME280;5307;42.548;22.968;2023-03-31T04:46:34;93842.75;;;7.56;90.42
10518;BME280;5307;42.548;22.968;2023-03-31T04:49:01;93841.56;;;7.57;90.07
10518;BME280;5307;42.548;22.968;2023-03-31T04:51:30;93840.47;;;7.55;87.75
10518;BME280;5307;42.548;22.968;2023-03-31T04:53:57;93830.06;;;7.66;87.81
10518;BME280;5307;42.548;22.968;2023-03-31T04:56:24;93828.66;;;7.61;86.21
10518;BME280;5307;42.548;22.968;2023-03-31T04:58:53;93823.88;;;7.65;85.60
10518;BME280;5307;42.548;22.968;2023-03-31T05:01:19;93823.69;;;7.72;85.79
10518;BME280;5307;42.548;22.968;2023-03-31T05:03:46;93809.84;;;7.67;85.84
10518;BME280;5307;42.548;22.968;2023-03-31T05:06:13;93815.41;;;7.63;85.27
10518;BME280;5307;42.548;22.968;2023-03-31T05:08:40;93813.81;;;7.79;86.47
10518;BME280;5307;42.548;22.968;2023-03-31T05:11:07;93808.22;;;7.69;86.08
10518;BME280;5307;42.548;22.968;2023-03-31T05:13:34;93805.72;;;7.62;87.21
10518;BME280;5307;42.548;22.968;2023-03-31T05:16:07;93801.47;;;7.61;87.67
10518;BME280;5307;42.548;22.968;2023-03-31T05:18:33;93799.53;;;7.62;88.69
10518;BME280;5307;42.548;22.968;2023-03-31T05:21:09;93801.59;;;7.70;88.65
10518;BME280;5307;42.548;22.968;2023-03-31T05:23:36;93809.28;;;7.88;89.31
10518;BME280;5307;42.548;22.968;2023-03-31T05:26:03;93818.31;;;7.98;90.98
10518;BME280;5307;42.548;22.968;2023-03-31T05:28:30;93803.13;;;7.71;91.22
10518;BME280;5307;42.548;22.968;2023-03-31T05:30:58;93802.75;;;7.86;92.32
10518;BME280;5307;42.548;22.968;2023-03-31T05:33:27;93806.06;;;8.06;92.29
10518;BME280;5307;42.548;22.968;2023-03-31T05:35:54;93798.38;;;8.17;92.95
10518;BME280;5307;42.548;22.968;2023-03-31T05:38:22;93812.06;;;8.26;93.42
10518;BME280;5307;42.548;22.968;2023-03-31T05:40:49;93802.44;;;8.38;94.23
10518;BME280;5307;42.548;22.968;2023-03-31T05:43:16;93799.41;;;8.49;93.02
10518;BME280;5307;42.548;22.968;2023-03-31T05:45:43;93804.63;;;8.56;92.05
10518;BME280;5307;42.548;22.968;2023-03-31T05:48:09;93805.38;;;8.56;88.28
10518;BME280;5307;42.548;22.968;2023-03-31T05:50:38;93801.69;;;8.63;86.54
10518;BME280;5307;42.548;22.968;2023-03-31T05:53:04;93799.28;;;8.65;86.77
10518;BME280;5307;42.548;22.968;2023-03-31T05:55:31;93803.97;;;8.65;86.20
10518;BME280;5307;42.548;22.968;2023-03-31T05:58:01;93806.06;;;8.60;86.24
10518;BME280;5307;42.548;22.968;2023-03-31T06:00:28;93811.16;;;8.58;85.51
10518;BME280;5307;42.548;22.968;2023-03-31T06:02:56;93802.78;;;8.53;84.58
10518;BME280;5307;42.548;22.968;2023-03-31T06:05:23;93806.50;;;8.59;84.72
10518;BME280;5307;42.548;22.968;2023-03-31T06:07:52;93797.78;;;8.64;83.13
10518;BME280;5307;42.548;22.968;2023-03-31T06:10:19;93800.81;;;8.66;82.01
10518;BME280;5307;42.548;22.968;2023-03-31T06:12:46;93806.25;;;8.66;83.20
10518;BME280;5307;42.548;22.968;2023-03-31T06:15:13;93800.50;;;8.77;83.76
10518;BME280;5307;42.548;22.968;2023-03-31T06:17:40;93803.41;;;8.82;83.78
10518;BME280;5307;42.548;22.968;2023-03-31T06:20:07;93800.38;;;8.80;83.01
10518;BME280;5307;42.548;22.968;2023-03-31T06:22:34;93797.44;;;8.87;83.71
10518;BME280;5307;42.548;22.968;2023-03-31T06:25:03;93792.41;;;8.99;83.40
10518;BME280;5307;42.548;22.968;2023-03-31T06:27:30;93800.81;;;8.91;82.70
10518;BME280;5307;42.548;22.968;2023-03-31T06:29:57;93790.78;;;8.88;80.81
10518;BME280;5307;42.548;22.968;2023-03-31T06:32:24;93794.03;;;9.09;79.99
10518;BME280;5307;42.548;22.968;2023-03-31T06:34:51;93788.00;;;9.14;78.06
10518;BME280;5307;42.548;22.968;2023-03-31T06:37:18;93787.22;;;9.26;79.31
10518;BME280;5307;42.548;22.968;2023-03-31T06:39:45;93795.84;;;9.25;76.97
10518;BME280;5307;42.548;22.968;2023-03-31T06:42:13;93802.00;;;9.50;77.54
10518;BME280;5307;42.548;22.968;2023-03-31T06:44:39;93800.38;;;9.40;77.14
10518;BME280;5307;42.548;22.968;2023-03-31T06:47:06;93802.38;;;9.62;75.66
10518;BME280;5307;42.548;22.968;2023-03-31T06:49:33;93793.91;;;9.81;74.79
10518;BME280;5307;42.548;22.968;2023-03-31T06:52:00;93788.19;;;9.89;72.95
10518;BME280;5307;42.548;22.968;2023-03-31T06:54:28;93781.19;;;10.09;72.61
10518;BME280;5307;42.548;22.968;2023-03-31T06:56:55;93774.50;;;10.23;73.28
10518;BME280;5307;42.548;22.968;2023-03-31T06:59:23;93769.78;;;9.80;71.65
10518;BME280;5307;42.548;22.968;2023-03-31T07:02:24;93757.38;;;9.79;72.65
10518;BME280;5307;42.548;22.968;2023-03-31T07:04:51;93763.69;;;10.20;73.43
10518;BME280;5307;42.548;22.968;2023-03-31T07:07:18;93760.28;;;10.06;73.71
10518;BME280;5307;42.548;22.968;2023-03-31T07:09:54;93775.00;;;9.87;72.94
10518;BME280;5307;42.548;22.968;2023-03-31T07:12:21;93772.63;;;9.98;73.27
10518;BME280;5307;42.548;22.968;2023-03-31T07:14:50;93762.69;;;10.04;72.94
10518;BME280;5307;42.548;22.968;2023-03-31T07:20:07;93749.59;;;10.43;71.68
10518;BME280;5307;42.548;22.968;2023-03-31T07:43:17;93708.16;;;12.46;61.22
10518;BME280;5307;42.548;22.968;2023-03-31T07:46:04;93721.06;;;12.55;58.78
10518;BME280;5307;42.548;22.968;2023-03-31T07:48:54;93712.56;;;12.86;58.13
10518;BME280;5307;42.548;22.968;2023-03-31T07:51:38;93715.41;;;13.24;57.64
10518;BME280;5307;42.548;22.968;2023-03-31T07:58:12;93710.84;;;13.60;55.43
10518;BME280;5307;42.548;22.968;2023-03-31T08:00:41;93703.88;;;13.74;55.51
10518;BME280;5307;42.548;22.968;2023-03-31T08:03:07;93711.91;;;13.15;57.28
10518;BME280;5307;42.548;22.968;2023-03-31T08:05:34;93714.28;;;13.31;56.70
10518;BME280;5307;42.548;22.968;2023-03-31T08:08:01;93710.34;;;12.66;57.51
10518;BME280;5307;42.548;22.968;2023-03-31T08:10:28;93715.13;;;13.13;59.10
10518;BME280;5307;42.548;22.968;2023-03-31T08:12:55;93701.47;;;13.04;58.17
10518;BME280;5307;42.548;22.968;2023-03-31T08:15:22;93687.00;;;12.79;59.85
10518;BME280;5307;42.548;22.968;2023-03-31T08:17:50;93694.59;;;12.52;59.28
10518;BME280;5307;42.548;22.968;2023-03-31T08:20:17;93700.28;;;12.39;59.49
10518;BME280;5307;42.548;22.968;2023-03-31T08:22:44;93690.03;;;12.48;59.58
10518;BME280;5307;42.548;22.968;2023-03-31T08:25:11;93692.19;;;12.44;59.44
10518;BME280;5307;42.548;22.968;2023-03-31T08:27:39;93686.00;;;12.35;58.65
10518;BME280;5307;42.548;22.968;2023-03-31T08:30:08;93683.88;;;12.63;57.67
10518;BME280;5307;42.548;22.968;2023-03-31T08:32:35;93664.25;;;13.12;54.71
10518;BME280;5307;42.548;22.968;2023-03-31T08:35:05;93673.47;;;13.00;54.65
10518;BME280;5307;42.548;22.968;2023-03-31T08:37:32;93673.97;;;13.76;55.75
10518;BME280;5307;42.548;22.968;2023-03-31T08:39:59;93663.72;;;13.76;53.91
10518;BME280;5307;42.548;22.968;2023-03-31T08:42:34;93661.25;;;13.49;55.82
10518;BME280;5307;42.548;22.968;2023-03-31T08:45:04;93659.75;;;14.07;55.61
10518;BME280;5307;42.548;22.968;2023-03-31T08:47:33;93657.28;;;13.79;54.16
10518;BME280;5307;42.548;22.968;2023-03-31T08:50:07;93650.31;;;14.22;52.86
10518;BME280;5307;42.548;22.968;2023-03-31T08:52:41;93639.97;;;14.03;51.71
10518;BME280;5307;42.548;22.968;2023-03-31T08:55:12;93647.59;;;14.93;51.09
10518;BME280;5307;42.548;22.968;2023-03-31T08:57:51;93648.91;;;14.62;52.63
10518;BME280;5307;42.548;22.968;2023-03-31T09:00:20;93639.41;;;14.13;53.26
10518;BME280;5307;42.548;22.968;2023-03-31T09:02:50;93635.78;;;14.37;52.11
10518;BME280;5307;42.548;22.968;2023-03-31T09:08:23;93617.91;;;14.26;53.96
10518;BME280;5307;42.548;22.968;2023-03-31T09:11:04;93620.94;;;14.64;51.89
10518;BME280;5307;42.548;22.968;2023-03-31T09:13:51;93626.19;;;15.23;51.51
10518;BME280;5307;42.548;22.968;2023-03-31T09:16:23;93620.97;;;15.71;47.26
10518;BME280;5307;42.548;22.968;2023-03-31T09:18:54;93622.47;;;15.98;46.86
10518;BME280;5307;42.548;22.968;2023-03-31T09:21:28;93611.81;;;15.80;45.67
10518;BME280;5307;42.548;22.968;2023-03-31T09:24:02;93614.00;;;16.33;47.10
10518;BME280;5307;42.548;22.968;2023-03-31T09:26:35;93618.53;;;15.53;47.35
10518;BME280;5307;42.548;22.968;2023-03-31T09:29:09;93615.00;;;14.85;47.47
10518;BME280;5307;42.548;22.968;2023-03-31T09:31:41;93614.44;;;14.81;48.37
10518;BME280;5307;42.548;22.968;2023-03-31T09:34:13;93604.94;;;15.03;48.58
10518;BME280;5307;42.548;22.968;2023-03-31T09:36:41;93610.03;;;14.69;48.04
10518;BME280;5307;42.548;22.968;2023-03-31T09:39:11;93609.81;;;14.52;48.18
10518;BME280;5307;42.548;22.968;2023-03-31T09:41:42;93606.38;;;14.58;49.63
10518;BME280;5307;42.548;22.968;2023-03-31T09:44:19;93600.34;;;14.39;49.45
10518;BME280;5307;42.548;22.968;2023-03-31T09:46:49;93587.56;;;14.50;49.11
10518;BME280;5307;42.548;22.968;2023-03-31T09:49:19;93594.09;;;14.53;49.91
10518;BME280;5307;42.548;22.968;2023-03-31T09:51:53;93592.22;;;14.30;50.03
10518;BME280;5307;42.548;22.968;2023-03-31T09:54:26;93593.88;;;14.42;50.34
10518;BME280;5307;42.548;22.968;2023-03-31T09:56:55;93581.66;;;14.08;49.46
10518;BME280;5307;42.548;22.968;2023-03-31T09:59:23;93586.53;;;14.68;49.65
10518;BME280;5307;42.548;22.968;2023-03-31T10:01:58;93580.28;;;14.88;48.96
10518;BME280;5307;42.548;22.968;2023-03-31T10:04:27;93572.78;;;14.89;48.46
10518;BME280;5307;42.548;22.968;2023-03-31T10:06:58;93565.97;;;14.84;48.78
10518;BME280;5307;42.548;22.968;2023-03-31T10:09:26;93571.13;;;14.56;47.68
10518;BME280;5307;42.548;22.968;2023-03-31T10:11:57;93564.81;;;14.70;47.75
10518;BME280;5307;42.548;22.968;2023-03-31T10:14:31;93562.47;;;14.63;47.54
10518;BME280;5307;42.548;22.968;2023-03-31T10:17:03;93554.56;;;14.91;48.33
10518;BME280;5307;42.548;22.968;2023-03-31T10:19:32;93550.91;;;15.00;47.26
10518;BME280;5307;42.548;22.968;2023-03-31T10:22:03;93548.97;;;15.52;46.86
10518;BME280;5307;42.548;22.968;2023-03-31T10:24:38;93544.31;;;15.38;45.96
10518;BME280;5307;42.548;22.968;2023-03-31T10:27:06;93528.72;;;15.81;45.67
10518;BME280;5307;42.548;22.968;2023-03-31T10:29:40;93530.22;;;15.82;46.53
10518;BME280;5307;42.548;22.968;2023-03-31T10:32:10;93529.91;;;15.23;44.85
10518;BME280;5307;42.548;22.968;2023-03-31T10:34:43;93526.22;;;15.31;45.91
10518;BME280;5307;42.548;22.968;2023-03-31T10:37:15;93522.22;;;15.32;47.26
10518;BME280;5307;42.548;22.968;2023-03-31T10:39:44;93515.06;;;15.40;48.35
10518;BME280;5307;42.548;22.968;2023-03-31T10:42:18;93517.72;;;15.29;45.82
10518;BME280;5307;42.548;22.968;2023-03-31T10:44:46;93506.94;;;15.26;44.34
10518;BME280;5307;42.548;22.968;2023-03-31T10:47:18;93497.91;;;15.51;44.27
10518;BME280;5307;42.548;22.968;2023-03-31T10:49:49;93506.56;;;15.38;44.06
10518;BME280;5307;42.548;22.968;2023-03-31T10:52:20;93508.16;;;15.51;44.80
10518;BME280;5307;42.548;22.968;2023-03-31T10:54:48;93505.78;;;15.38;43.58
10518;BME280;5307;42.548;22.968;2023-03-31T10:57:16;93492.81;;;15.44;44.53
10518;BME280;5307;42.548;22.968;2023-03-31T11:00:02;93484.94;;;15.57;44.97
10518;BME280;5307;42.548;22.968;2023-03-31T11:05:31;93473.31;;;15.42;45.67
10518;BME280;5307;42.548;22.968;2023-03-31T11:08:12;93480.38;;;15.49;44.91
10518;BME280;5307;42.548;22.968;2023-03-31T11:10:53;93484.09;;;15.45;46.75
10518;BME280;5307;42.548;22.968;2023-03-31T11:13:28;93467.69;;;15.31;44.27
10518;BME280;5307;42.548;22.968;2023-03-31T11:16:07;93455.50;;;15.37;44.47
10518;BME280;5307;42.548;22.968;2023-03-31T11:18:50;93462.69;;;15.29;45.21
10518;BME280;5307;42.548;22.968;2023-03-31T11:21:23;93446.53;;;15.11;44.78
10518;BME280;5307;42.548;22.968;2023-03-31T11:24:03;93454.28;;;15.38;44.19
10518;BME280;5307;42.548;22.968;2023-03-31T11:26:39;93446.81;;;15.44;48.42
10518;BME280;5307;42.548;22.968;2023-03-31T11:29:21;93438.13;;;15.52;46.89
10518;BME280;5307;42.548;22.968;2023-03-31T11:31:57;93435.78;;;15.44;44.64
10518;BME280;5307;42.548;22.968;2023-03-31T11:34:45;93429.09;;;15.51;44.45
10518;BME280;5307;42.548;22.968;2023-03-31T11:37:30;93434.28;;;15.75;44.08
10518;BME280;5307;42.548;22.968;2023-03-31T11:40:21;93419.59;;;15.89;43.73
10518;BME280;5307;42.548;22.968;2023-03-31T11:42:55;93418.50;;;16.18;42.79
10518;BME280;5307;42.548;22.968;2023-03-31T11:45:27;93417.78;;;16.23;43.36
10518;BME280;5307;42.548;22.968;2023-03-31T11:48:01;93413.13;;;16.57;44.85
10518;BME280;5307;42.548;22.968;2023-03-31T11:50:31;93407.72;;;16.80;44.79
10518;BME280;5307;42.548;22.968;2023-03-31T11:53:06;93407.66;;;16.03;41.87
10518;BME280;5307;42.548;22.968;2023-03-31T11:55:40;93399.25;;;16.29;42.94
10518;BME280;5307;42.548;22.968;2023-03-31T11:58:12;93388.44;;;17.02;45.92
10518;BME280;5307;42.548;22.968;2023-03-31T12:00:43;93387.91;;;16.81;42.29
10518;BME280;5307;42.548;22.968;2023-03-31T12:03:14;93382.41;;;16.87;43.55
10518;BME280;5307;42.548;22.968;2023-03-31T12:05:45;93391.41;;;16.82;41.12
10518;BME280;5307;42.548;22.968;2023-03-31T12:08:16;93384.66;;;17.00;42.35
10518;BME280;5307;42.548;22.968;2023-03-31T12:10:49;93376.66;;;17.07;44.39
10518;BME280;5307;42.548;22.968;2023-03-31T12:13:32;93364.13;;;16.89;43.58
10518;BME280;5307;42.548;22.968;2023-03-31T12:16:04;93376.66;;;16.96;42.04
10518;BME280;5307;42.548;22.968;2023-03-31T12:18:34;93380.66;;;16.95;44.09
10518;BME280;5307;42.548;22.968;2023-03-31T12:21:04;93378.38;;;16.82;42.36
10518;BME280;5307;42.548;22.968;2023-03-31T12:23:37;93371.81;;;16.63;42.89
10518;BME280;5307;42.548;22.968;2023-03-31T12:26:13;93371.53;;;16.55;44.15
10518;BME280;5307;42.548;22.968;2023-03-31T12:28:44;93358.91;;;16.21;42.45
10518;BME280;5307;42.548;22.968;2023-03-31T12:31:18;93359.38;;;16.14;44.27
10518;BME280;5307;42.548;22.968;2023-03-31T12:33:49;93348.41;;;16.25;44.08
10518;BME280;5307;42.548;22.968;2023-03-31T12:36:30;93352.16;;;16.22;41.40
10518;BME280;5307;42.548;22.968;2023-03-31T12:39:11;93335.84;;;16.13;41.94
10518;BME280;5307;42.548;22.968;2023-03-31T12:41:57;93336.38;;;16.28;43.50
10518;BME280;5307;42.548;22.968;2023-03-31T12:44:37;93324.09;;;16.23;42.73
10518;BME280;5307;42.548;22.968;2023-03-31T12:47:40;93324.34;;;16.31;43.37
10518;BME280;5307;42.548;22.968;2023-03-31T12:50:31;93318.63;;;16.35;44.13
10518;BME280;5307;42.548;22.968;2023-03-31T12:53:12;93318.34;;;16.27;42.51
10518;BME280;5307;42.548;22.968;2023-03-31T12:55:44;93321.34;;;16.29;44.00
10518;BME280;5307;42.548;22.968;2023-03-31T12:58:38;93307.56;;;16.29;45.03
10518;BME280;5307;42.548;22.968;2023-03-31T13:01:08;93296.53;;;16.18;44.84
10518;BME280;5307;42.548;22.968;2023-03-31T13:03:41;93293.25;;;16.14;44.48
10518;BME280;5307;42.548;22.968;2023-03-31T13:06:10;93280.28;;;16.20;43.97
10518;BME280;5307;42.548;22.968;2023-03-31T13:08:54;93289.28;;;16.26;43.72
10518;BME280;5307;42.548;22.968;2023-03-31T13:11:33;93266.97;;;16.18;43.67
10518;BME280;5307;42.548;22.968;2023-03-31T13:14:05;93267.47;;;16.17;42.78
10518;BME280;5307;42.548;22.968;2023-03-31T13:16:33;93254.19;;;16.10;41.91
10518;BME280;5307;42.548;22.968;2023-03-31T13:19:01;93252.44;;;16.07;42.26
10518;BME280;5307;42.548;22.968;2023-03-31T13:21:28;93251.41;;;16.04;42.69
10518;BME280;5307;42.548;22.968;2023-03-31T13:23:59;93239.38;;;15.96;42.18
10518;BME280;5307;42.548;22.968;2023-03-31T13:26:45;93240.63;;;16.00;41.93
10518;BME280;5307;42.548;22.968;2023-03-31T13:29:22;93232.63;;;16.02;42.25
10518;BME280;5307;42.548;22.968;2023-03-31T13:34:53;93219.84;;;15.94;43.77
10518;BME280;5307;42.548;22.968;2023-03-31T14:15:46;93174.53;;;15.78;42.75
10518;BME280;5307;42.548;22.968;2023-03-31T14:18:17;93168.25;;;15.83;42.92
10518;BME280;5307;42.548;22.968;2023-03-31T14:20:54;93163.00;;;15.85;43.04
10518;BME280;5307;42.548;22.968;2023-03-31T14:30:17;93165.97;;;15.65;45.24
10518;BME280;5307;42.548;22.968;2023-03-31T14:33:23;93130.88;;;15.49;44.51
10518;BME280;5307;42.548;22.968;2023-03-31T14:35:56;93152.16;;;15.54;45.83
10518;BME280;5307;42.548;22.968;2023-03-31T14:38:41;93142.97;;;15.79;44.60
10518;BME280;5307;42.548;22.968;2023-03-31T14:41:15;93132.97;;;15.87;42.40
10518;BME280;5307;42.548;22.968;2023-03-31T14:43:55;93137.47;;;16.01;43.73
10518;BME280;5307;42.548;22.968;2023-03-31T14:46:23;93131.97;;;15.90;45.65
10518;BME280;5307;42.548;22.968;2023-03-31T14:48:51;93130.97;;;16.16;42.32
10518;BME280;5307;42.548;22.968;2023-03-31T14:51:24;93135.72;;;16.32;41.42
10518;BME280;5307;42.548;22.968;2023-03-31T14:53:55;93137.50;;;16.13;44.85
10518;BME280;5307;42.548;22.968;2023-03-31T14:56:26;93125.22;;;16.42;39.84
10518;BME280;5307;42.548;22.968;2023-03-31T14:58:59;93138.25;;;16.41;37.74
10518;BME280;5307;42.548;22.968;2023-03-31T15:01:29;93123.44;;;16.44;37.25
10518;BME280;5307;42.548;22.968;2023-03-31T15:04:05;93135.72;;;16.54;37.88
10518;BME280;5307;42.548;22.968;2023-03-31T15:06:32;93127.19;;;16.47;36.23
10518;BME280;5307;42.548;22.968;2023-03-31T15:09:02;93135.72;;;16.54;36.91